Home   Weather   Spain   Linares   Past weeks
Flag for Spain

Past Weather in Linares, Jaén, Spain — Yesterday and Last 2 Weeks

Currently: 77 °F. Passing clouds. (Weather station: Granada / Aeropuerto, Spain). See more current weather

Past Weather in Linares — Graph

°F

Linares Temperature Yesterday

Maximum temperature yesterday: 73 °F (at 3:00 pm)
Minimum temperature yesterday: 46 °F (at 6:00 am)
Average temperature yesterday: 62 °F

High & Low Weather Summary for the Past Weeks

 TemperatureHumidityPressure
High90 °F (May 11, 5:30 pm)94% (May 8, 3:30 am)30.12 "Hg (May 8, 3:30 am)
Low45 °F (May 16, 6:30 am)14% (May 10, 3:30 pm)29.80 "Hg (May 14, 6:00 pm)
Average65 °F52%29.96 "Hg
* Reported May 7 8:00 pm — May 22 8:00 pm, Linares. Weather by CustomWeather, © 2024

Note: Actual official high and low records may vary slightly from our data, if they occured in-between our weather recording intervals... More about our weather records

Linares Weather History for the Previous 24 Hours

Scroll right to see more
 ConditionsComfort  
Time TempWeatherWind HumidityBarometerVisibility
8:00 pm
Wed, May 22
77 °FPassing clouds.10 mph26%30.01 "HgN/A
7:00 pm79 °FPassing clouds.10 mph24%30.01 "HgN/A
6:30 pm81 °FPassing clouds.9 mph24%30.01 "HgN/A
6:00 pm81 °FPassing clouds.8 mph23%30.01 "HgN/A
5:30 pm81 °FPassing clouds.9 mph23%30.01 "HgN/A
5:00 pm81 °FPassing clouds.5 mph21%30.04 "HgN/A
4:30 pm79 °FPassing clouds.6 mph24%30.04 "HgN/A
4:00 pm79 °FPassing clouds.7 mph23%30.04 "HgN/A
3:00 pm79 °FPassing clouds.7 mph18%30.07 "HgN/A
2:30 pm77 °FPassing clouds.5 mph26%30.07 "HgN/A
2:00 pm75 °FPassing clouds.3 mph22%30.07 "HgN/A
1:30 pm75 °FPassing clouds.3 mph22%30.09 "HgN/A
1:00 pm72 °FPassing clouds.5 mph29%30.09 "HgN/A
12:30 pm72 °FPassing clouds.5 mph33%30.09 "HgN/A
12:00 pm70 °FPassing clouds.3 mph33%30.09 "HgN/A
11:30 am68 °FPassing clouds.2 mph46%30.09 "HgN/A
11:00 am64 °FPassing clouds.2 mph52%30.12 "HgN/A
10:30 am63 °FPassing clouds.3 mph56%30.12 "HgN/A
10:00 am61 °FSunny.2 mph63%30.12 "Hg10 mi
9:00 am55 °FSunny.1 mph72%30.12 "Hg10 mi
8:30 am52 °FSunny.2 mph82%30.12 "Hg10 mi
8:00 am50 °FSunny.No wind88%30.12 "Hg10 mi
7:00 am48 °FClear.5 mph87%30.09 "Hg10 mi
6:30 am48 °FPassing clouds.3 mph87%30.09 "HgN/A
6:00 am48 °FClear.3 mph87%30.09 "Hg10 mi
5:30 am50 °FClear.2 mph88%30.09 "Hg10 mi
5:00 am52 °FClear.3 mph82%30.09 "Hg10 mi
4:30 am52 °FClear.3 mph82%30.09 "Hg10 mi
4:00 am54 °FPassing clouds.3 mph82%30.09 "HgN/A
3:30 am54 °FClear.6 mph82%30.09 "Hg10 mi
3:00 am55 °FClear.2 mph77%30.12 "Hg10 mi
2:30 am57 °FClear.2 mph67%30.12 "Hg10 mi
2:00 am57 °FPassing clouds.7 mph72%30.12 "HgN/A
1:30 am59 °FPassing clouds.7 mph68%30.12 "HgN/A
1:00 am61 °FClear.9 mph59%30.12 "Hg10 mi
12:30 am61 °FClear.9 mph55%30.09 "Hg10 mi
12:00 am61 °FClear.10 mph55%30.09 "Hg10 mi
11:30 pm
Tue, May 21
61 °FClear.8 mph52%30.09 "Hg10 mi
11:00 pm61 °FPassing clouds.7 mph52%30.09 "HgN/A
10:30 pm61 °FPassing clouds.6 mph48%30.07 "HgN/A
10:00 pm64 °FClear.7 mph43%30.07 "Hg10 mi
9:30 pm66 °FPassing clouds.9 mph40%30.07 "HgN/A
9:00 pm68 °FPassing clouds.10 mph35%30.04 "HgN/A
Weather by CustomWeather, © 2024

See weather overview